Time,TemperatureF,DewpointF,PressureIn,WindDirection,WindDirectionDegrees,WindSpeedMPH,WindSpeedGustMPH,Humidity,HourlyPrecipIn,Conditions,Clouds,dailyrainin,SoftwareType,DateUTC
2013-09-07 00:00:00,67.5,63.2,29.99,SW,217,0.0,0.0,86,0.00,,,0.00,Wunderground v.1.15,2013-09-07 05:00:00,
2013-09-07 00:10:00,67.2,62.9,29.99,SSW,197,0.0,4.0,86,0.00,,,0.00,Wunderground v.1.15,2013-09-07 05:10:00,
2013-09-07 00:20:00,66.4,62.7,30.00,SSW,197,0.0,4.0,88,0.00,,,0.00,Wunderground v.1.15,2013-09-07 05:20:00,
2013-09-07 00:25:00,66.3,62.3,30.00,SSE,150,0.0,4.0,87,0.00,,,0.00,Wunderground v.1.15,2013-09-07 05:25:00,
2013-09-07 00:35:00,65.6,61.9,30.00,SSE,150,0.0,4.0,88,0.00,,,0.00,Wunderground v.1.15,2013-09-07 05:35:00,
2013-09-07 00:45:00,65.2,62.2,30.00,SSE,151,0.0,4.0,90,0.00,,,0.00,Wunderground v.1.15,2013-09-07 05:45:00,
2013-09-07 00:55:00,64.7,61.7,30.00,SSE,151,0.0,4.0,90,0.00,,,0.00,Wunderground v.1.15,2013-09-07 05:55:00,
2013-09-07 01:00:00,64.3,61.6,30.00,SSE,151,0.0,0.0,91,0.00,,,0.00,Wunderground v.1.15,2013-09-07 06:00:00,
2013-09-07 01:10:00,63.8,61.1,30.00,SSE,150,0.0,3.0,91,0.00,,,0.00,Wunderground v.1.15,2013-09-07 06:10:00,
2013-09-07 01:20:00,63.4,61.0,29.99,SSW,193,0.0,3.0,92,0.00,,,0.00,Wunderground v.1.15,2013-09-07 06:20:00,
2013-09-07 01:25:00,63.4,61.6,29.99,SSW,193,0.0,3.0,94,0.00,,,0.00,Wunderground v.1.15,2013-09-07 06:25:00,
2013-09-07 01:35:00,63.9,61.5,29.99,WSW,246,0.0,3.0,92,0.00,,,0.00,Wunderground v.1.15,2013-09-07 06:35:00,
2013-09-07 01:40:00,63.7,61.3,29.99,WSW,245,0.0,3.0,92,0.00,,,0.00,Wunderground v.1.15,2013-09-07 06:40:00,
2013-09-07 01:50:00,63.5,61.4,29.99,WSW,240,0.0,3.0,93,0.00,,,0.00,Wunderground v.1.15,2013-09-07 06:50:00,
2013-09-07 01:55:00,63.3,61.2,29.99,WSW,240,0.0,3.0,93,0.00,,,0.00,Wunderground v.1.15,2013-09-07 06:55:00,
2013-09-07 02:00:00,63.0,60.9,29.99,WSW,240,0.0,0.0,93,0.00,,,0.00,Wunderground v.1.15,2013-09-07 07:00:00,
2013-09-07 02:10:00,62.9,61.1,29.99,WSW,240,0.0,2.0,94,0.00,,,0.00,Wunderground v.1.15,2013-09-07 07:10:00,
2013-09-07 02:20:00,62.5,60.4,29.98,WSW,240,0.0,2.0,93,0.00,,,0.00,Wunderground v.1.15,2013-09-07 07:20:00,
2013-09-07 02:25:00,62.3,60.6,29.98,WSW,240,0.0,2.0,94,0.00,,,0.00,Wunderground v.1.15,2013-09-07 07:25:00,
2013-09-07 02:35:00,62.2,60.5,29.99,WSW,240,0.0,2.0,94,0.00,,,0.00,Wunderground v.1.15,2013-09-07 07:35:00,
2013-09-07 02:40:00,62.2,60.8,29.98,WSW,240,0.0,2.0,95,0.00,,,0.00,Wunderground v.1.15,2013-09-07 07:40:00,
2013-09-07 02:50:00,62.2,60.8,29.99,WSW,240,0.0,2.0,95,0.00,,,0.00,Wunderground v.1.15,2013-09-07 07:50:00,
2013-09-07 02:55:00,62.3,60.8,29.99,WSW,240,0.0,2.0,95,0.00,,,0.00,Wunderground v.1.15,2013-09-07 07:55:00,
2013-09-07 03:00:00,62.4,60.9,29.98,WSW,240,0.0,0.0,95,0.00,,,0.00,Wunderground v.1.15,2013-09-07 08:00:00,
2013-09-07 03:10:00,62.4,60.9,29.98,WSW,240,0.0,1.0,95,0.00,,,0.00,Wunderground v.1.15,2013-09-07 08:10:00,
2013-09-07 03:20:00,62.4,60.7,29.98,WSW,240,0.0,1.0,94,0.00,,,0.00,Wunderground v.1.15,2013-09-07 08:20:00,
2013-09-07 03:25:00,62.3,60.6,29.98,WSW,240,0.0,1.0,94,0.00,,,0.00,Wunderground v.1.15,2013-09-07 08:25:00,
2013-09-07 03:35:00,62.0,60.3,29.98,WSW,240,0.0,1.0,94,0.00,,,0.00,Wunderground v.1.15,2013-09-07 08:35:00,
2013-09-07 03:40:00,62.1,60.4,29.98,SSW,204,0.0,1.0,94,0.00,,,0.00,Wunderground v.1.15,2013-09-07 08:40:00,
2013-09-07 03:50:00,62.3,60.6,29.98,SE,144,0.0,1.0,94,0.00,,,0.00,Wunderground v.1.15,2013-09-07 08:50:00,
2013-09-07 04:00:00,62.4,60.3,29.98,SE,136,0.0,0.0,93,0.00,,,0.00,Wunderground v.1.15,2013-09-07 09:00:00,
2013-09-07 04:05:00,62.2,60.5,29.98,SE,136,0.0,1.0,94,0.00,,,0.00,Wunderground v.1.15,2013-09-07 09:05:00,
2013-09-07 04:15:00,62.0,60.6,29.98,SE,136,0.0,1.0,95,0.00,,,0.00,Wunderground v.1.15,2013-09-07 09:15:00,
2013-09-07 04:20:00,62.0,60.6,29.98,SE,136,0.0,1.0,95,0.00,,,0.00,Wunderground v.1.15,2013-09-07 09:20:00,
2013-09-07 04:30:00,61.9,60.5,29.98,SE,136,0.0,1.0,95,0.00,,,0.00,Wunderground v.1.15,2013-09-07 09:30:00,
2013-09-07 04:35:00,61.9,60.5,29.98,SE,136,0.0,1.0,95,0.00,,,0.00,Wunderground v.1.15,2013-09-07 09:35:00,
2013-09-07 04:45:00,61.9,60.5,29.98,SE,136,0.0,1.0,95,0.00,,,0.00,Wunderground v.1.15,2013-09-07 09:45:00,
2013-09-07 04:50:00,61.8,60.4,29.98,SE,136,0.0,1.0,95,0.00,,,0.00,Wunderground v.1.15,2013-09-07 09:50:00,
2013-09-07 05:00:00,61.8,60.4,29.97,SE,136,0.0,0.0,95,0.00,,,0.00,Wunderground v.1.15,2013-09-07 10:00:00,
2013-09-07 05:05:00,61.8,60.4,29.97,SE,136,0.0,2.0,95,0.00,,,0.00,Wunderground v.1.15,2013-09-07 10:05:00,
2013-09-07 05:15:00,62.1,60.7,29.97,SSW,209,0.0,2.0,95,0.00,,,0.00,Wunderground v.1.15,2013-09-07 10:15:00,
2013-09-07 05:20:00,62.4,60.9,29.97,South,176,0.0,2.0,95,0.00,,,0.00,Wunderground v.1.15,2013-09-07 10:20:00,
2013-09-07 05:30:00,62.7,60.9,29.97,SE,131,0.0,2.0,94,0.00,,,0.00,Wunderground v.1.15,2013-09-07 10:30:00,
2013-09-07 05:35:00,63.1,61.3,29.97,South,177,0.0,2.0,94,0.00,,,0.00,Wunderground v.1.15,2013-09-07 10:35:00,
2013-09-07 05:45:00,63.5,61.4,29.97,SSE,158,1.0,2.0,93,0.00,,,0.00,Wunderground v.1.15,2013-09-07 10:45:00,
2013-09-07 05:50:00,63.6,61.2,29.98,SW,217,1.0,1.0,92,0.00,,,0.00,Wunderground v.1.15,2013-09-07 10:50:00,
2013-09-07 06:00:00,63.8,61.4,29.98,SSE,153,1.0,1.0,92,0.00,,,0.00,Wunderground v.1.15,2013-09-07 11:00:00,
2013-09-07 06:05:00,63.8,61.4,29.98,South,172,1.0,1.0,92,0.00,,,0.00,Wunderground v.1.15,2013-09-07 11:05:00,
2013-09-07 06:15:00,63.5,61.1,29.98,SE,137,0.0,1.0,92,0.00,,,0.00,Wunderground v.1.15,2013-09-07 11:15:00,
2013-09-07 06:20:00,63.4,61.0,29.98,SSW,213,0.0,1.0,92,0.00,,,0.00,Wunderground v.1.15,2013-09-07 11:20:00,
2013-09-07 06:30:00,62.8,60.4,29.99,SSE,162,0.0,1.0,92,0.00,,,0.00,Wunderground v.1.15,2013-09-07 11:30:00,
2013-09-07 06:35:00,62.6,60.5,29.99,SSE,160,0.0,1.0,93,0.00,,,0.00,Wunderground v.1.15,2013-09-07 11:35:00,
2013-09-07 06:45:00,62.4,60.3,29.99,SSE,154,0.0,1.0,93,0.00,,,0.00,Wunderground v.1.15,2013-09-07 11:45:00,
2013-09-07 06:50:00,62.4,60.7,29.98,SSE,151,0.0,1.0,94,0.00,,,0.00,Wunderground v.1.15,2013-09-07 11:50:00,
2013-09-07 07:00:00,62.8,60.7,29.99,SE,145,1.0,1.0,93,0.00,,,0.00,Wunderground v.1.15,2013-09-07 12:00:00,
2013-09-07 07:10:00,63.4,61.3,29.99,SSE,150,1.0,1.0,93,0.00,,,0.00,Wunderground v.1.15,2013-09-07 12:10:00,
2013-09-07 07:20:00,64.5,61.8,29.99,SSE,148,0.0,3.0,91,0.00,,,0.00,Wunderground v.1.15,2013-09-07 12:20:00,
2013-09-07 07:30:00,65.4,62.1,29.99,SE,142,0.0,3.0,89,0.00,,,0.00,Wunderground v.1.15,2013-09-07 12:30:00,
2013-09-07 07:35:00,65.9,62.2,29.99,SE,146,0.0,3.0,88,0.00,,,0.00,Wunderground v.1.15,2013-09-07 12:35:00,
2013-09-07 07:45:00,66.5,62.8,30.00,SSE,159,0.0,3.0,88,0.00,,,0.00,Wunderground v.1.15,2013-09-07 12:45:00,
2013-09-07 07:50:00,66.9,62.9,30.00,SSE,160,0.0,3.0,87,0.00,,,0.00,Wunderground v.1.15,2013-09-07 12:50:00,
2013-09-07 08:00:00,67.5,63.5,30.00,South,180,0.0,0.0,87,0.00,,,0.00,Wunderground v.1.15,2013-09-07 13:00:00,
2013-09-07 08:10:00,68.2,63.5,30.00,West,270,1.0,1.0,85,0.00,,,0.00,Wunderground v.1.15,2013-09-07 13:10:00,
2013-09-07 08:20:00,68.6,64.2,29.99,SSE,155,0.0,3.0,86,0.00,,,0.00,Wunderground v.1.15,2013-09-07 13:20:00,
2013-09-07 08:30:00,69.5,65.1,29.99,South,172,1.0,3.0,86,0.00,,,0.00,Wunderground v.1.15,2013-09-07 13:30:00,
2013-09-07 08:35:00,70.1,65.0,29.99,South,180,0.0,3.0,84,0.00,,,0.00,Wunderground v.1.15,2013-09-07 13:35:00,
2013-09-07 08:45:00,71.5,66.1,29.99,WSW,241,1.0,3.0,83,0.00,,,0.00,Wunderground v.1.15,2013-09-07 13:45:00,
2013-09-07 08:55:00,72.0,66.6,29.99,SSW,195,2.0,3.0,83,0.00,,,0.00,Wunderground v.1.15,2013-09-07 13:55:00,
2013-09-07 09:00:00,72.4,66.2,29.99,WSW,240,3.0,4.0,81,0.00,,,0.00,Wunderground v.1.15,2013-09-07 14:00:00,
2013-09-07 09:10:00,73.3,66.8,30.00,WSW,258,3.0,5.0,80,0.00,,,0.00,Wunderground v.1.15,2013-09-07 14:10:00,
2013-09-07 09:15:00,73.7,67.5,30.00,West,259,3.0,5.0,81,0.00,,,0.00,Wunderground v.1.15,2013-09-07 14:15:00,
2013-09-07 09:25:00,75.5,67.4,29.99,SSW,204,3.0,3.0,76,0.00,,,0.00,Wunderground v.1.15,2013-09-07 14:25:00,
2013-09-07 09:30:00,75.6,67.5,29.99,SW,231,1.0,1.0,76,0.00,,,0.00,Wunderground v.1.15,2013-09-07 14:30:00,
2013-09-07 09:40:00,74.5,66.4,29.98,ESE,119,1.0,2.0,76,0.00,,,0.00,Wunderground v.1.15,2013-09-07 14:40:00,
2013-09-07 09:45:00,74.0,66.3,29.98,SE,134,1.0,2.0,77,0.00,,,0.00,Wunderground v.1.15,2013-09-07 14:45:00,
2013-09-07 09:55:00,73.0,66.5,29.97,SE,139,1.0,2.0,80,0.20,,,0.02,Wunderground v.1.15,2013-09-07 14:55:00,
2013-09-07 10:00:00,72.0,66.6,29.96,SSW,192,2.0,2.0,83,0.07,,,0.02,Wunderground v.1.15,2013-09-07 15:00:00,
2013-09-07 10:10:00,71.4,66.7,29.97,SSW,194,1.0,1.0,85,0.00,,,0.02,Wunderground v.1.15,2013-09-07 15:10:00,
2013-09-07 10:15:00,71.3,66.9,29.97,East,90,0.0,8.0,86,0.00,,,0.02,Wunderground v.1.15,2013-09-07 15:15:00,
2013-09-07 10:25:00,71.4,67.0,29.97,SE,136,0.0,8.0,86,0.00,,,0.02,Wunderground v.1.15,2013-09-07 15:25:00,
2013-09-07 10:30:00,71.7,66.9,29.97,SE,146,0.0,8.0,85,0.00,,,0.02,Wunderground v.1.15,2013-09-07 15:30:00,
2013-09-07 10:40:00,72.8,67.7,29.97,WSW,246,0.0,8.0,84,0.00,,,0.02,Wunderground v.1.15,2013-09-07 15:40:00,
2013-09-07 10:45:00,73.0,68.2,29.97,WSW,242,1.0,8.0,85,0.00,,,0.02,Wunderground v.1.15,2013-09-07 15:45:00,
2013-09-07 10:55:00,74.4,68.9,29.97,West,260,2.0,8.0,83,0.00,,,0.02,Wunderground v.1.15,2013-09-07 15:55:00,
2013-09-07 11:00:00,75.4,68.8,29.97,WSW,246,3.0,3.0,80,0.00,,,0.02,Wunderground v.1.15,2013-09-07 16:00:00,
2013-09-07 11:10:00,76.8,69.4,29.96,SW,219,2.0,7.0,78,0.00,,,0.02,Wunderground v.1.15,2013-09-07 16:10:00,
2013-09-07 11:15:00,77.9,70.5,29.96,SSE,154,2.0,7.0,78,0.00,,,0.02,Wunderground v.1.15,2013-09-07 16:15:00,
2013-09-07 11:25:00,79.4,72.7,29.96,SW,229,1.0,2.0,80,0.00,,,0.02,Wunderground v.1.15,2013-09-07 16:25:00,
2013-09-07 11:30:00,79.6,69.0,29.95,SSE,148,2.0,7.0,70,0.00,,,0.02,Wunderground v.1.15,2013-09-07 16:30:00,
2013-09-07 11:40:00,80.4,70.5,29.95,ESE,118,2.0,2.0,72,0.00,,,0.02,Wunderground v.1.15,2013-09-07 16:40:00,
2013-09-07 11:45:00,81.0,69.9,29.94,South,178,2.0,3.0,69,0.00,,,0.02,Wunderground v.1.15,2013-09-07 16:45:00,
2013-09-07 11:55:00,81.9,70.3,29.95,WSW,245,2.0,8.0,68,0.00,,,0.02,Wunderground v.1.15,2013-09-07 16:55:00,
2013-09-07 12:00:00,81.4,69.4,29.94,SW,221,2.0,3.0,67,0.00,,,0.02,Wunderground v.1.15,2013-09-07 17:00:00,
2013-09-07 12:10:00,81.3,69.7,29.93,SW,236,2.0,2.0,68,0.00,,,0.02,Wunderground v.1.15,2013-09-07 17:10:00,
2013-09-07 12:15:00,82.2,69.3,29.93,SE,144,2.0,4.0,65,0.00,,,0.02,Wunderground v.1.15,2013-09-07 17:15:00,
2013-09-07 12:25:00,83.0,69.1,29.93,West,277,3.0,6.0,63,0.00,,,0.02,Wunderground v.1.15,2013-09-07 17:25:00,
2013-09-07 12:30:00,83.2,67.9,29.92,WSW,238,3.0,6.0,60,0.00,,,0.02,Wunderground v.1.15,2013-09-07 17:30:00,
2013-09-07 12:40:00,82.8,70.3,29.92,WSW,256,3.0,3.0,66,0.00,,,0.02,Wunderground v.1.15,2013-09-07 17:40:00,
2013-09-07 12:45:00,82.3,67.0,29.93,SW,222,2.0,6.0,60,0.00,,,0.02,Wunderground v.1.15,2013-09-07 17:45:00,
2013-09-07 12:55:00,82.7,68.4,29.92,SW,232,2.0,6.0,62,0.00,,,0.02,Wunderground v.1.15,2013-09-07 17:55:00,
2013-09-07 13:00:00,82.8,68.4,29.92,WSW,245,2.0,2.0,62,0.00,,,0.02,Wunderground v.1.15,2013-09-07 18:00:00,
2013-09-07 13:10:00,83.4,67.6,29.91,ESE,115,1.0,8.0,59,0.00,,,0.02,Wunderground v.1.15,2013-09-07 18:10:00,
2013-09-07 13:20:00,84.1,65.7,29.91,WSW,239,1.0,8.0,54,0.00,,,0.02,Wunderground v.1.15,2013-09-07 18:20:00,
2013-09-07 13:25:00,84.5,66.6,29.91,West,262,2.0,8.0,55,0.00,,,0.02,Wunderground v.1.15,2013-09-07 18:25:00,
2013-09-07 13:35:00,84.1,68.2,29.91,South,170,1.0,8.0,59,0.00,,,0.02,Wunderground v.1.15,2013-09-07 18:35:00,
2013-09-07 13:40:00,83.6,68.2,29.91,WSW,238,1.0,1.0,60,0.00,,,0.02,Wunderground v.1.15,2013-09-07 18:40:00,
2013-09-07 13:50:00,82.9,68.1,29.91,SW,236,1.0,8.0,61,0.00,,,0.02,Wunderground v.1.15,2013-09-07 18:50:00,
2013-09-07 13:55:00,83.2,68.3,29.90,SE,128,1.0,8.0,61,0.00,,,0.02,Wunderground v.1.15,2013-09-07 18:55:00,
2013-09-07 14:00:00,83.5,68.2,29.91,SSW,213,1.0,1.0,60,0.00,,,0.02,Wunderground v.1.15,2013-09-07 19:00:00,
2013-09-07 14:10:00,84.1,67.2,29.90,SW,230,0.0,10.0,57,0.00,,,0.02,Wunderground v.1.15,2013-09-07 19:10:00,
2013-09-07 14:20:00,84.2,68.3,29.90,SE,139,1.0,10.0,59,0.00,,,0.02,Wunderground v.1.15,2013-09-07 19:20:00,
2013-09-07 14:30:00,84.4,68.5,29.89,SW,236,1.0,1.0,59,0.00,,,0.02,Wunderground v.1.15,2013-09-07 19:30:00,
2013-09-07 14:35:00,84.2,68.3,29.89,SSW,212,1.0,10.0,59,0.00,,,0.02,Wunderground v.1.15,2013-09-07 19:35:00,
2013-09-07 14:45:00,84.7,69.8,29.90,West,260,1.0,4.0,61,0.00,,,0.02,Wunderground v.1.15,2013-09-07 19:45:00,
2013-09-07 14:50:00,85.1,69.2,29.89,ESE,113,1.0,1.0,59,0.00,,,0.02,Wunderground v.1.15,2013-09-07 19:50:00,
2013-09-07 15:00:00,85.5,67.5,29.89,WSW,254,1.0,3.0,55,0.00,,,0.02,Wunderground v.1.15,2013-09-07 20:00:00,
2013-09-07 15:10:00,85.2,67.2,29.89,SW,235,1.0,1.0,55,0.00,,,0.02,Wunderground v.1.15,2013-09-07 20:10:00,
2013-09-07 15:20:00,85.3,66.8,29.89,West,264,2.0,6.0,54,0.00,,,0.02,Wunderground v.1.15,2013-09-07 20:20:00,
2013-09-07 15:30:00,86.0,68.5,29.89,SSE,167,1.0,6.0,56,0.00,,,0.02,Wunderground v.1.15,2013-09-07 20:30:00,
2013-09-07 15:35:00,86.2,66.5,29.89,WSW,248,1.0,6.0,52,0.00,,,0.02,Wunderground v.1.15,2013-09-07 20:35:00,
2013-09-07 15:45:00,87.2,68.5,29.89,SE,128,1.0,4.0,54,0.00,,,0.02,Wunderground v.1.15,2013-09-07 20:45:00,
2013-09-07 15:55:00,87.3,69.2,29.89,SE,132,1.0,6.0,55,0.00,,,0.02,Wunderground v.1.15,2013-09-07 20:55:00,
2013-09-07 16:05:00,86.8,68.2,29.89,WSW,252,2.0,5.0,54,0.00,,,0.02,Wunderground v.1.15,2013-09-07 21:05:00,
2013-09-07 16:10:00,86.8,67.6,29.89,WSW,248,1.0,5.0,53,0.00,,,0.02,Wunderground v.1.15,2013-09-07 21:10:00,
2013-09-07 16:20:00,86.9,66.6,29.89,SSE,147,2.0,2.0,51,0.00,,,0.02,Wunderground v.1.15,2013-09-07 21:20:00,
2013-09-07 16:25:00,86.9,67.2,29.88,West,266,2.0,5.0,52,0.00,,,0.02,Wunderground v.1.15,2013-09-07 21:25:00,
2013-09-07 16:35:00,86.8,67.6,29.88,SW,226,1.0,5.0,53,0.00,,,0.02,Wunderground v.1.15,2013-09-07 21:35:00,
2013-09-07 16:40:00,87.6,67.8,29.88,SE,134,0.0,5.0,52,0.00,,,0.02,Wunderground v.1.15,2013-09-07 21:40:00,
2013-09-07 16:50:00,86.8,68.2,29.88,WSW,240,1.0,5.0,54,0.00,,,0.02,Wunderground v.1.15,2013-09-07 21:50:00,
2013-09-07 17:00:00,87.1,68.4,29.88,SW,230,1.0,1.0,54,0.00,,,0.02,Wunderground v.1.15,2013-09-07 22:00:00,
2013-09-07 17:10:00,87.9,68.6,29.88,South,169,0.0,6.0,53,0.00,,,0.02,Wunderground v.1.15,2013-09-07 22:10:00,
2013-09-07 17:20:00,87.6,66.1,29.89,WSW,238,1.0,6.0,49,0.00,,,0.02,Wunderground v.1.15,2013-09-07 22:20:00,
2013-09-07 17:25:00,86.6,67.4,29.89,SW,232,0.0,6.0,53,0.00,,,0.02,Wunderground v.1.15,2013-09-07 22:25:00,
2013-09-07 17:35:00,86.2,67.6,29.89,SE,139,0.0,6.0,54,0.00,,,0.02,Wunderground v.1.15,2013-09-07 22:35:00,
2013-09-07 17:45:00,86.8,69.7,29.89,SE,139,0.0,6.0,57,0.00,,,0.02,Wunderground v.1.15,2013-09-07 22:45:00,
2013-09-07 17:50:00,86.7,70.7,29.89,SSE,150,0.0,6.0,59,0.00,,,0.02,Wunderground v.1.15,2013-09-07 22:50:00,
2013-09-07 18:00:00,85.5,69.0,29.88,SE,128,0.0,0.0,58,0.00,,,0.02,Wunderground v.1.15,2013-09-07 23:00:00,
2013-09-07 18:10:00,84.5,68.6,29.88,SE,129,0.0,7.0,59,0.00,,,0.02,Wunderground v.1.15,2013-09-07 23:10:00,
2013-09-07 18:20:00,84.7,68.8,29.88,SSE,166,0.0,7.0,59,0.00,,,0.02,Wunderground v.1.15,2013-09-07 23:20:00,
2013-09-07 18:30:00,84.7,68.8,29.88,South,171,0.0,7.0,59,0.00,,,0.02,Wunderground v.1.15,2013-09-07 23:30:00,
2013-09-07 18:40:00,84.2,67.8,29.87,SE,136,0.0,7.0,58,0.00,,,0.02,Wunderground v.1.15,2013-09-07 23:40:00,
2013-09-07 18:45:00,83.9,68.5,29.87,SE,136,0.0,7.0,60,0.00,,,0.02,Wunderground v.1.15,2013-09-07 23:45:00,
2013-09-07 18:55:00,82.7,69.3,29.86,SE,136,0.0,7.0,64,0.00,,,0.02,Wunderground v.1.15,2013-09-07 23:55:00,
2013-09-07 19:00:00,81.8,68.4,29.86,SSW,194,0.0,0.0,64,0.00,,,0.02,Wunderground v.1.15,2013-09-08 00:00:00,
2013-09-07 19:10:00,80.4,68.4,29.87,SSW,194,0.0,2.0,67,0.00,,,0.02,Wunderground v.1.15,2013-09-08 00:10:00,
2013-09-07 19:15:00,79.6,67.7,29.87,SSW,195,0.0,2.0,67,0.00,,,0.02,Wunderground v.1.15,2013-09-08 00:15:00,
2013-09-07 19:25:00,77.9,67.3,29.87,SSW,195,0.0,2.0,70,0.00,,,0.02,Wunderground v.1.15,2013-09-08 00:25:00,
2013-09-07 19:35:00,76.3,67.4,29.87,SSW,195,0.0,2.0,74,0.00,,,0.02,Wunderground v.1.15,2013-09-08 00:35:00,
2013-09-07 19:45:00,75.3,67.2,29.87,SSW,195,0.0,2.0,76,0.00,,,0.02,Wunderground v.1.15,2013-09-08 00:45:00,
2013-09-07 19:55:00,74.5,67.2,29.87,SSW,194,0.0,2.0,78,0.00,,,0.02,Wunderground v.1.15,2013-09-08 00:55:00,
2013-09-07 20:00:00,74.0,67.1,29.87,SSW,194,0.0,0.0,79,0.00,,,0.02,Wunderground v.1.15,2013-09-08 01:00:00,
2013-09-07 20:10:00,73.7,67.1,29.87,SSW,194,0.0,2.0,80,0.00,,,0.02,Wunderground v.1.15,2013-09-08 01:10:00,
2013-09-07 20:15:00,73.8,66.9,29.87,SSW,194,0.0,2.0,79,0.00,,,0.02,Wunderground v.1.15,2013-09-08 01:15:00,
2013-09-07 20:25:00,74.3,66.6,29.87,SSW,200,0.0,2.0,77,0.00,,,0.02,Wunderground v.1.15,2013-09-08 01:25:00,
2013-09-07 20:35:00,74.6,66.5,29.87,SW,223,0.0,2.0,76,0.00,,,0.02,Wunderground v.1.15,2013-09-08 01:35:00,
2013-09-07 20:45:00,73.7,66.0,29.87,SE,131,0.0,2.0,77,0.00,,,0.02,Wunderground v.1.15,2013-09-08 01:45:00,
2013-09-07 20:50:00,73.3,66.4,29.88,SE,131,0.0,2.0,79,0.00,,,0.02,Wunderground v.1.15,2013-09-08 01:50:00,
2013-09-07 21:00:00,71.9,66.1,29.88,SE,131,0.0,0.0,82,0.00,,,0.02,Wunderground v.1.15,2013-09-08 02:00:00,
2013-09-07 21:15:00,70.7,66.0,29.89,SE,131,0.0,0.0,85,0.00,,,0.02,Wunderground v.1.15,2013-09-08 02:15:00,
2013-09-07 21:25:00,70.0,65.6,29.89,SE,131,0.0,0.0,86,0.00,,,0.02,Wunderground v.1.15,2013-09-08 02:25:00,
2013-09-07 21:35:00,69.2,65.5,29.89,SE,131,0.0,0.0,88,0.00,,,0.02,Wunderground v.1.15,2013-09-08 02:35:00,
2013-09-07 21:40:00,68.7,65.3,29.90,SE,131,0.0,0.0,89,0.00,,,0.02,Wunderground v.1.15,2013-09-08 02:40:00,
2013-09-07 21:50:00,68.3,65.3,29.89,SE,131,0.0,0.0,90,0.00,,,0.02,Wunderground v.1.15,2013-09-08 02:50:00,
2013-09-07 21:55:00,68.4,65.7,29.89,SE,131,0.0,0.0,91,0.00,,,0.02,Wunderground v.1.15,2013-09-08 02:55:00,
2013-09-07 22:00:00,68.7,65.6,29.89,SE,131,0.0,0.0,90,0.00,,,0.02,Wunderground v.1.15,2013-09-08 03:00:00,
2013-09-07 22:10:00,68.6,65.5,29.88,SE,131,0.0,3.0,90,0.00,,,0.02,Wunderground v.1.15,2013-09-08 03:10:00,
2013-09-07 22:15:00,68.4,65.7,29.88,SE,131,0.0,3.0,91,0.00,,,0.02,Wunderground v.1.15,2013-09-08 03:15:00,
2013-09-07 22:25:00,68.1,65.1,29.88,SE,131,0.0,3.0,90,0.00,,,0.02,Wunderground v.1.15,2013-09-08 03:25:00,
2013-09-07 22:35:00,68.3,65.3,29.88,SE,131,0.0,3.0,90,0.00,,,0.02,Wunderground v.1.15,2013-09-08 03:35:00,
2013-09-07 22:40:00,68.4,65.4,29.88,SE,131,0.0,3.0,90,0.00,,,0.02,Wunderground v.1.15,2013-09-08 03:40:00,
2013-09-07 22:50:00,69.0,65.6,29.88,SE,131,0.0,3.0,89,0.00,,,0.02,Wunderground v.1.15,2013-09-08 03:50:00,
2013-09-07 22:55:00,69.1,65.4,29.88,SE,131,0.0,3.0,88,0.00,,,0.02,Wunderground v.1.15,2013-09-08 03:55:00,
2013-09-07 23:00:00,69.0,65.6,29.88,SE,131,0.0,0.0,89,0.00,,,0.02,Wunderground v.1.15,2013-09-08 04:00:00,
2013-09-07 23:05:00,68.9,65.5,29.88,SE,131,0.0,0.0,89,0.00,,,0.02,Wunderground v.1.15,2013-09-08 04:05:00,
2013-09-07 23:15:00,69.0,65.6,29.88,SE,131,0.0,0.0,89,0.00,,,0.02,Wunderground v.1.15,2013-09-08 04:15:00,
2013-09-07 23:20:00,68.9,65.2,29.88,SE,131,0.0,0.0,88,0.00,,,0.02,Wunderground v.1.15,2013-09-08 04:20:00,
2013-09-07 23:25:00,68.8,65.4,29.89,SE,131,0.0,0.0,89,0.00,,,0.02,Wunderground v.1.15,2013-09-08 04:25:00,
2013-09-07 23:35:00,68.9,65.5,29.89,SE,131,0.0,0.0,89,0.00,,,0.02,Wunderground v.1.15,2013-09-08 04:35:00,
2013-09-07 23:45:00,69.0,65.6,29.89,SE,131,0.0,0.0,89,0.00,,,0.02,Wunderground v.1.15,2013-09-08 04:45:00,
2013-09-07 23:55:00,69.1,65.7,29.89,SE,131,0.0,0.0,89,0.00,,,0.02,Wunderground v.1.15,2013-09-08 04:55:00,